sensor_id;sensor_type;location;lat;lon;timestamp;temperature;humidity
59025;DHT22;44806;48.008;13.666;2023-05-14T00:02:06;11.90;99.90
59025;DHT22;44806;48.008;13.666;2023-05-14T00:04:33;11.90;99.90
59025;DHT22;44806;48.008;13.666;2023-05-14T00:07:01;11.90;99.90
59025;DHT22;44806;48.008;13.666;2023-05-14T00:09:29;11.90;99.90
59025;DHT22;44806;48.008;13.666;2023-05-14T00:11:56;11.90;99.90
59025;DHT22;44806;48.008;13.666;2023-05-14T00:14:23;11.80;99.90
59025;DHT22;44806;48.008;13.666;2023-05-14T00:16:50;11.70;99.90
59025;DHT22;44806;48.008;13.666;2023-05-14T00:19:17;11.70;99.90
59025;DHT22;44806;48.008;13.666;2023-05-14T00:21:44;11.60;99.90
59025;DHT22;44806;48.008;13.666;2023-05-14T00:24:11;11.70;99.90
59025;DHT22;44806;48.008;13.666;2023-05-14T00:26:40;11.70;99.90
59025;DHT22;44806;48.008;13.666;2023-05-14T00:29:06;11.70;99.90
59025;DHT22;44806;48.008;13.666;2023-05-14T00:31:34;11.60;99.90
59025;DHT22;44806;48.008;13.666;2023-05-14T00:34:01;11.60;99.90
59025;DHT22;44806;48.008;13.666;2023-05-14T00:36:28;11.50;99.90
59025;DHT22;44806;48.008;13.666;2023-05-14T00:38:55;11.60;99.90
59025;DHT22;44806;48.008;13.666;2023-05-14T00:41:22;11.60;99.90
59025;DHT22;44806;48.008;13.666;2023-05-14T00:43:50;11.60;99.90
59025;DHT22;44806;48.008;13.666;2023-05-14T00:46:17;11.60;99.90
59025;DHT22;44806;48.008;13.666;2023-05-14T00:48:45;11.60;99.90
59025;DHT22;44806;48.008;13.666;2023-05-14T00:51:12;11.60;99.90
59025;DHT22;44806;48.008;13.666;2023-05-14T00:53:40;11.70;99.90
59025;DHT22;44806;48.008;13.666;2023-05-14T00:56:07;11.60;99.90
59025;DHT22;44806;48.008;13.666;2023-05-14T00:58:34;11.70;99.90
59025;DHT22;44806;48.008;13.666;2023-05-14T01:01:03;11.70;99.90
59025;DHT22;44806;48.008;13.666;2023-05-14T01:03:29;11.70;99.90
59025;DHT22;44806;48.008;13.666;2023-05-14T01:06:02;11.70;99.90
59025;DHT22;44806;48.008;13.666;2023-05-14T01:08:45;11.70;99.90
59025;DHT22;44806;48.008;13.666;2023-05-14T01:11:18;11.70;99.90
59025;DHT22;44806;48.008;13.666;2023-05-14T01:13:52;11.70;99.90
59025;DHT22;44806;48.008;13.666;2023-05-14T01:16:22;11.70;99.90
59025;DHT22;44806;48.008;13.666;2023-05-14T01:18:53;11.70;99.90
59025;DHT22;44806;48.008;13.666;2023-05-14T01:21:33;11.70;99.90
59025;DHT22;44806;48.008;13.666;2023-05-14T01:24:02;11.80;99.90
59025;DHT22;44806;48.008;13.666;2023-05-14T01:26:29;11.90;99.90
59025;DHT22;44806;48.008;13.666;2023-05-14T01:29:00;11.80;99.90
59025;DHT22;44806;48.008;13.666;2023-05-14T01:31:30;11.80;99.90
59025;DHT22;44806;48.008;13.666;2023-05-14T01:34:00;11.70;99.90
59025;DHT22;44806;48.008;13.666;2023-05-14T01:36:28;11.60;99.90
59025;DHT22;44806;48.008;13.666;2023-05-14T01:38:56;11.60;99.90
59025;DHT22;44806;48.008;13.666;2023-05-14T01:41:24;11.60;99.90
59025;DHT22;44806;48.008;13.666;2023-05-14T01:43:51;11.50;99.90
59025;DHT22;44806;48.008;13.666;2023-05-14T01:46:18;11.40;99.90
59025;DHT22;44806;48.008;13.666;2023-05-14T01:48:46;11.40;99.90
59025;DHT22;44806;48.008;13.666;2023-05-14T01:51:13;11.30;99.90
59025;DHT22;44806;48.008;13.666;2023-05-14T01:53:41;11.40;99.90
59025;DHT22;44806;48.008;13.666;2023-05-14T01:56:08;11.40;99.90
59025;DHT22;44806;48.008;13.666;2023-05-14T01:58:35;11.40;99.90
59025;DHT22;44806;48.008;13.666;2023-05-14T02:01:02;11.40;99.90
59025;DHT22;44806;48.008;13.666;2023-05-14T02:03:29;11.40;99.90
59025;DHT22;44806;48.008;13.666;2023-05-14T02:05:56;11.40;99.90
59025;DHT22;44806;48.008;13.666;2023-05-14T02:08:23;11.30;99.90
59025;DHT22;44806;48.008;13.666;2023-05-14T02:10:51;11.30;99.90
59025;DHT22;44806;48.008;13.666;2023-05-14T02:13:18;11.20;99.90
59025;DHT22;44806;48.008;13.666;2023-05-14T02:15:45;11.20;99.90
59025;DHT22;44806;48.008;13.666;2023-05-14T02:18:12;11.10;99.90
59025;DHT22;44806;48.008;13.666;2023-05-14T02:20:39;11.10;99.90
59025;DHT22;44806;48.008;13.666;2023-05-14T02:23:06;11.10;99.90
59025;DHT22;44806;48.008;13.666;2023-05-14T02:25:33;11.10;99.90
59025;DHT22;44806;48.008;13.666;2023-05-14T02:28:01;11.10;99.90
59025;DHT22;44806;48.008;13.666;2023-05-14T02:30:28;11.10;99.90
59025;DHT22;44806;48.008;13.666;2023-05-14T02:32:56;11.00;99.90
59025;DHT22;44806;48.008;13.666;2023-05-14T02:35:23;11.10;99.90
59025;DHT22;44806;48.008;13.666;2023-05-14T02:37:49;11.20;99.90
59025;DHT22;44806;48.008;13.666;2023-05-14T02:40:17;11.30;99.90
59025;DHT22;44806;48.008;13.666;2023-05-14T02:42:44;11.30;99.90
59025;DHT22;44806;48.008;13.666;2023-05-14T02:45:12;11.20;99.90
59025;DHT22;44806;48.008;13.666;2023-05-14T02:47:39;11.20;99.90
59025;DHT22;44806;48.008;13.666;2023-05-14T02:50:07;11.30;99.90
59025;DHT22;44806;48.008;13.666;2023-05-14T02:52:35;11.20;99.90
59025;DHT22;44806;48.008;13.666;2023-05-14T02:55:03;11.30;99.90
59025;DHT22;44806;48.008;13.666;2023-05-14T02:57:30;11.40;99.90
59025;DHT22;44806;48.008;13.666;2023-05-14T02:59:57;11.40;99.90
59025;DHT22;44806;48.008;13.666;2023-05-14T03:02:25;11.50;99.90
59025;DHT22;44806;48.008;13.666;2023-05-14T03:04:52;11.30;99.90
59025;DHT22;44806;48.008;13.666;2023-05-14T03:07:19;11.30;99.90
59025;DHT22;44806;48.008;13.666;2023-05-14T03:09:46;11.20;99.90
59025;DHT22;44806;48.008;13.666;2023-05-14T03:12:13;11.20;99.90
59025;DHT22;44806;48.008;13.666;2023-05-14T03:14:40;11.20;99.90
59025;DHT22;44806;48.008;13.666;2023-05-14T03:17:07;11.20;99.90
59025;DHT22;44806;48.008;13.666;2023-05-14T03:19:35;11.20;99.90
59025;DHT22;44806;48.008;13.666;2023-05-14T03:22:02;11.30;99.90
59025;DHT22;44806;48.008;13.666;2023-05-14T03:24:29;11.30;99.90
59025;DHT22;44806;48.008;13.666;2023-05-14T03:26:56;11.20;99.90
59025;DHT22;44806;48.008;13.666;2023-05-14T03:29:23;11.30;99.90
59025;DHT22;44806;48.008;13.666;2023-05-14T03:31:50;11.20;99.90
59025;DHT22;44806;48.008;13.666;2023-05-14T03:34:17;11.30;99.90
59025;DHT22;44806;48.008;13.666;2023-05-14T03:36:46;11.40;99.90
59025;DHT22;44806;48.008;13.666;2023-05-14T03:39:13;11.40;99.90
59025;DHT22;44806;48.008;13.666;2023-05-14T03:41:44;11.40;99.90
59025;DHT22;44806;48.008;13.666;2023-05-14T03:44:11;11.40;99.90
59025;DHT22;44806;48.008;13.666;2023-05-14T03:46:38;11.40;99.90
59025;DHT22;44806;48.008;13.666;2023-05-14T03:49:06;11.40;99.90
59025;DHT22;44806;48.008;13.666;2023-05-14T03:51:33;11.30;99.90
59025;DHT22;44806;48.008;13.666;2023-05-14T03:54:02;11.20;99.90
59025;DHT22;44806;48.008;13.666;2023-05-14T03:56:29;11.30;99.90
59025;DHT22;44806;48.008;13.666;2023-05-14T03:58:56;11.30;99.90
59025;DHT22;44806;48.008;13.666;2023-05-14T04:01:23;11.30;99.90
59025;DHT22;44806;48.008;13.666;2023-05-14T04:03:50;11.20;99.90
59025;DHT22;44806;48.008;13.666;2023-05-14T04:06:17;11.30;99.90
59025;DHT22;44806;48.008;13.666;2023-05-14T04:08:43;11.30;99.90
59025;DHT22;44806;48.008;13.666;2023-05-14T04:11:12;11.30;99.90
59025;DHT22;44806;48.008;13.666;2023-05-14T04:13:39;11.20;99.90
59025;DHT22;44806;48.008;13.666;2023-05-14T04:16:06;11.30;99.90
59025;DHT22;44806;48.008;13.666;2023-05-14T04:18:33;11.30;99.90
59025;DHT22;44806;48.008;13.666;2023-05-14T04:21:00;11.30;99.90
59025;DHT22;44806;48.008;13.666;2023-05-14T04:23:27;11.30;99.90
59025;DHT22;44806;48.008;13.666;2023-05-14T04:25:56;11.30;99.90
59025;DHT22;44806;48.008;13.666;2023-05-14T04:28:24;11.30;99.90
59025;DHT22;44806;48.008;13.666;2023-05-14T04:30:51;11.40;99.90
59025;DHT22;44806;48.008;13.666;2023-05-14T04:33:18;11.40;99.90
59025;DHT22;44806;48.008;13.666;2023-05-14T04:35:45;11.50;99.90
59025;DHT22;44806;48.008;13.666;2023-05-14T04:38:13;11.50;99.90
59025;DHT22;44806;48.008;13.666;2023-05-14T04:40:40;11.50;99.90
59025;DHT22;44806;48.008;13.666;2023-05-14T04:43:07;11.40;99.90
59025;DHT22;44806;48.008;13.666;2023-05-14T04:45:35;11.40;99.90
59025;DHT22;44806;48.008;13.666;2023-05-14T04:48:02;11.40;99.90
59025;DHT22;44806;48.008;13.666;2023-05-14T04:50:32;11.40;99.90
59025;DHT22;44806;48.008;13.666;2023-05-14T04:52:59;11.40;99.90
59025;DHT22;44806;48.008;13.666;2023-05-14T04:55:26;11.50;99.90
59025;DHT22;44806;48.008;13.666;2023-05-14T04:57:53;11.50;99.90
59025;DHT22;44806;48.008;13.666;2023-05-14T05:00:20;11.50;99.90
59025;DHT22;44806;48.008;13.666;2023-05-14T05:02:49;11.50;99.90
59025;DHT22;44806;48.008;13.666;2023-05-14T05:05:16;11.50;99.90
59025;DHT22;44806;48.008;13.666;2023-05-14T05:07:43;11.20;99.90
59025;DHT22;44806;48.008;13.666;2023-05-14T05:10:10;11.30;99.90
59025;DHT22;44806;48.008;13.666;2023-05-14T05:12:37;11.30;99.90
59025;DHT22;44806;48.008;13.666;2023-05-14T05:15:05;11.30;99.90
59025;DHT22;44806;48.008;13.666;2023-05-14T05:17:32;11.40;99.90
59025;DHT22;44806;48.008;13.666;2023-05-14T05:20:00;11.40;99.90
59025;DHT22;44806;48.008;13.666;2023-05-14T05:22:29;11.50;99.90
59025;DHT22;44806;48.008;13.666;2023-05-14T05:24:56;11.50;99.90
59025;DHT22;44806;48.008;13.666;2023-05-14T05:27:24;11.50;99.90
59025;DHT22;44806;48.008;13.666;2023-05-14T05:29:51;11.60;99.90
59025;DHT22;44806;48.008;13.666;2023-05-14T05:32:18;11.60;99.90
59025;DHT22;44806;48.008;13.666;2023-05-14T05:34:45;11.60;99.90
59025;DHT22;44806;48.008;13.666;2023-05-14T05:37:13;11.70;99.90
59025;DHT22;44806;48.008;13.666;2023-05-14T05:39:40;11.70;99.90
59025;DHT22;44806;48.008;13.666;2023-05-14T05:42:07;11.70;99.90
59025;DHT22;44806;48.008;13.666;2023-05-14T05:44:35;11.40;99.90
59025;DHT22;44806;48.008;13.666;2023-05-14T05:47:02;11.50;99.90
59025;DHT22;44806;48.008;13.666;2023-05-14T05:49:29;11.50;99.90
59025;DHT22;44806;48.008;13.666;2023-05-14T05:51:56;11.60;99.90
59025;DHT22;44806;48.008;13.666;2023-05-14T05:54:24;11.70;99.90
59025;DHT22;44806;48.008;13.666;2023-05-14T05:56:51;11.70;99.90
59025;DHT22;44806;48.008;13.666;2023-05-14T05:59:18;11.90;99.90
59025;DHT22;44806;48.008;13.666;2023-05-14T06:01:45;11.90;99.90
59025;DHT22;44806;48.008;13.666;2023-05-14T06:04:12;12.00;99.90
59025;DHT22;44806;48.008;13.666;2023-05-14T06:06:39;12.00;99.90
59025;DHT22;44806;48.008;13.666;2023-05-14T06:09:06;12.00;99.90
59025;DHT22;44806;48.008;13.666;2023-05-14T06:11:35;12.10;99.90
59025;DHT22;44806;48.008;13.666;2023-05-14T06:14:02;12.10;99.90
59025;DHT22;44806;48.008;13.666;2023-05-14T06:16:30;12.20;99.90
59025;DHT22;44806;48.008;13.666;2023-05-14T06:18:56;12.20;99.90
59025;DHT22;44806;48.008;13.666;2023-05-14T06:21:23;12.30;99.90
59025;DHT22;44806;48.008;13.666;2023-05-14T06:23:50;12.30;99.90
59025;DHT22;44806;48.008;13.666;2023-05-14T06:26:17;12.10;99.90
59025;DHT22;44806;48.008;13.666;2023-05-14T06:28:45;12.20;99.90
59025;DHT22;44806;48.008;13.666;2023-05-14T06:31:12;12.10;99.90
59025;DHT22;44806;48.008;13.666;2023-05-14T06:33:40;12.20;99.90
59025;DHT22;44806;48.008;13.666;2023-05-14T06:36:07;12.30;99.90
59025;DHT22;44806;48.008;13.666;2023-05-14T06:38:35;12.30;99.90
59025;DHT22;44806;48.008;13.666;2023-05-14T06:41:02;12.30;99.90
59025;DHT22;44806;48.008;13.666;2023-05-14T06:43:29;12.20;99.90
59025;DHT22;44806;48.008;13.666;2023-05-14T06:45:58;12.20;99.90
59025;DHT22;44806;48.008;13.666;2023-05-14T06:48:25;12.20;99.90
59025;DHT22;44806;48.008;13.666;2023-05-14T06:50:54;12.30;99.90
59025;DHT22;44806;48.008;13.666;2023-05-14T06:53:21;12.40;99.90
59025;DHT22;44806;48.008;13.666;2023-05-14T06:55:48;12.40;99.90
59025;DHT22;44806;48.008;13.666;2023-05-14T06:58:15;12.50;99.90
59025;DHT22;44806;48.008;13.666;2023-05-14T07:00:42;12.50;99.90
59025;DHT22;44806;48.008;13.666;2023-05-14T07:03:10;12.60;99.90
59025;DHT22;44806;48.008;13.666;2023-05-14T07:05:37;12.70;99.90
59025;DHT22;44806;48.008;13.666;2023-05-14T07:08:05;12.80;99.90
59025;DHT22;44806;48.008;13.666;2023-05-14T07:10:32;12.70;99.90
59025;DHT22;44806;48.008;13.666;2023-05-14T07:12:59;12.60;99.90
59025;DHT22;44806;48.008;13.666;2023-05-14T07:15:27;12.60;99.90
59025;DHT22;44806;48.008;13.666;2023-05-14T07:17:55;12.30;99.90
59025;DHT22;44806;48.008;13.666;2023-05-14T07:20:23;12.10;99.90
59025;DHT22;44806;48.008;13.666;2023-05-14T07:22:51;12.10;99.90
59025;DHT22;44806;48.008;13.666;2023-05-14T07:25:18;12.40;99.90
59025;DHT22;44806;48.008;13.666;2023-05-14T07:27:45;12.60;99.90
59025;DHT22;44806;48.008;13.666;2023-05-14T07:30:12;12.60;99.90
59025;DHT22;44806;48.008;13.666;2023-05-14T07:32:39;12.80;99.90
59025;DHT22;44806;48.008;13.666;2023-05-14T07:35:06;12.70;99.90
59025;DHT22;44806;48.008;13.666;2023-05-14T07:37:35;12.80;99.90
59025;DHT22;44806;48.008;13.666;2023-05-14T07:40:02;12.90;99.90
59025;DHT22;44806;48.008;13.666;2023-05-14T07:42:29;12.80;99.90
59025;DHT22;44806;48.008;13.666;2023-05-14T07:44:56;12.80;99.90
59025;DHT22;44806;48.008;13.666;2023-05-14T07:47:23;13.00;99.90
59025;DHT22;44806;48.008;13.666;2023-05-14T07:49:53;13.10;99.90
59025;DHT22;44806;48.008;13.666;2023-05-14T07:52:20;13.20;99.90
59025;DHT22;44806;48.008;13.666;2023-05-14T07:54:49;13.20;99.90
59025;DHT22;44806;48.008;13.666;2023-05-14T07:57:16;13.00;99.90
59025;DHT22;44806;48.008;13.666;2023-05-14T07:59:43;12.60;99.90
59025;DHT22;44806;48.008;13.666;2023-05-14T08:02:10;12.80;99.90
59025;DHT22;44806;48.008;13.666;2023-05-14T08:04:37;12.90;99.90
59025;DHT22;44806;48.008;13.666;2023-05-14T08:07:04;13.10;99.90
59025;DHT22;44806;48.008;13.666;2023-05-14T08:09:31;13.20;99.90
59025;DHT22;44806;48.008;13.666;2023-05-14T08:12:00;13.30;99.90
59025;DHT22;44806;48.008;13.666;2023-05-14T08:14:27;13.30;99.90
59025;DHT22;44806;48.008;13.666;2023-05-14T08:16:54;13.30;99.90
59025;DHT22;44806;48.008;13.666;2023-05-14T08:19:21;13.40;99.90
59025;DHT22;44806;48.008;13.666;2023-05-14T08:21:48;13.30;99.90
59025;DHT22;44806;48.008;13.666;2023-05-14T08:24:16;13.10;99.90
59025;DHT22;44806;48.008;13.666;2023-05-14T08:26:43;12.90;99.90
59025;DHT22;44806;48.008;13.666;2023-05-14T08:29:11;13.10;99.90
59025;DHT22;44806;48.008;13.666;2023-05-14T08:31:38;13.30;99.90
59025;DHT22;44806;48.008;13.666;2023-05-14T08:34:06;13.20;99.90
59025;DHT22;44806;48.008;13.666;2023-05-14T08:36:32;13.00;99.90
59025;DHT22;44806;48.008;13.666;2023-05-14T08:38:59;13.00;99.90
59025;DHT22;44806;48.008;13.666;2023-05-14T08:41:26;13.10;99.90
59025;DHT22;44806;48.008;13.666;2023-05-14T08:44:00;13.20;99.90
59025;DHT22;44806;48.008;13.666;2023-05-14T08:46:31;13.30;99.90
59025;DHT22;44806;48.008;13.666;2023-05-14T08:49:07;13.30;99.90
59025;DHT22;44806;48.008;13.666;2023-05-14T08:51:37;13.50;99.90
59025;DHT22;44806;48.008;13.666;2023-05-14T08:54:05;13.70;99.90
59025;DHT22;44806;48.008;13.666;2023-05-14T08:56:32;13.90;99.90
59025;DHT22;44806;48.008;13.666;2023-05-14T08:58:59;14.00;99.90
59025;DHT22;44806;48.008;13.666;2023-05-14T09:01:26;14.10;99.90
59025;DHT22;44806;48.008;13.666;2023-05-14T09:03:55;13.80;99.90
59025;DHT22;44806;48.008;13.666;2023-05-14T09:06:23;13.70;99.90
59025;DHT22;44806;48.008;13.666;2023-05-14T09:08:51;13.80;99.90
59025;DHT22;44806;48.008;13.666;2023-05-14T09:11:18;14.00;99.90
59025;DHT22;44806;48.008;13.666;2023-05-14T09:13:46;14.10;99.90
59025;DHT22;44806;48.008;13.666;2023-05-14T09:16:13;14.10;99.90
59025;DHT22;44806;48.008;13.666;2023-05-14T09:18:42;14.30;99.90
59025;DHT22;44806;48.008;13.666;2023-05-14T09:21:12;14.40;99.90
59025;DHT22;44806;48.008;13.666;2023-05-14T09:23:41;14.60;99.90
59025;DHT22;44806;48.008;13.666;2023-05-14T09:26:09;14.70;99.90
59025;DHT22;44806;48.008;13.666;2023-05-14T09:28:39;14.70;99.90
59025;DHT22;44806;48.008;13.666;2023-05-14T09:31:07;14.60;99.90
59025;DHT22;44806;48.008;13.666;2023-05-14T09:33:34;14.70;99.90
59025;DHT22;44806;48.008;13.666;2023-05-14T09:36:02;14.90;99.90
59025;DHT22;44806;48.008;13.666;2023-05-14T09:38:30;15.10;99.90
59025;DHT22;44806;48.008;13.666;2023-05-14T09:40:58;15.20;99.90
59025;DHT22;44806;48.008;13.666;2023-05-14T09:43:25;15.20;99.90
59025;DHT22;44806;48.008;13.666;2023-05-14T09:45:52;15.30;99.90
59025;DHT22;44806;48.008;13.666;2023-05-14T09:48:19;15.40;99.90
59025;DHT22;44806;48.008;13.666;2023-05-14T09:50:47;15.40;99.90
59025;DHT22;44806;48.008;13.666;2023-05-14T09:53:14;15.50;99.90
59025;DHT22;44806;48.008;13.666;2023-05-14T09:55:44;15.40;99.90
59025;DHT22;44806;48.008;13.666;2023-05-14T09:58:11;15.30;99.90
59025;DHT22;44806;48.008;13.666;2023-05-14T10:00:43;15.40;99.90
59025;DHT22;44806;48.008;13.666;2023-05-14T10:03:13;15.50;99.90
59025;DHT22;44806;48.008;13.666;2023-05-14T10:05:41;15.60;99.90
59025;DHT22;44806;48.008;13.666;2023-05-14T10:08:11;15.60;99.90
59025;DHT22;44806;48.008;13.666;2023-05-14T10:10:39;15.60;99.90
59025;DHT22;44806;48.008;13.666;2023-05-14T10:13:13;15.60;99.90
59025;DHT22;44806;48.008;13.666;2023-05-14T10:15:45;15.60;99.90
59025;DHT22;44806;48.008;13.666;2023-05-14T10:18:16;15.60;99.90
59025;DHT22;44806;48.008;13.666;2023-05-14T10:20:47;15.70;99.90
59025;DHT22;44806;48.008;13.666;2023-05-14T10:23:14;15.70;99.90
59025;DHT22;44806;48.008;13.666;2023-05-14T10:25:41;15.60;99.90
59025;DHT22;44806;48.008;13.666;2023-05-14T10:28:10;15.60;99.90
59025;DHT22;44806;48.008;13.666;2023-05-14T10:30:43;15.60;99.90
59025;DHT22;44806;48.008;13.666;2023-05-14T10:33:11;15.50;99.90
59025;DHT22;44806;48.008;13.666;2023-05-14T10:35:59;15.40;99.90
59025;DHT22;44806;48.008;13.666;2023-05-14T10:38:26;15.50;99.90
59025;DHT22;44806;48.008;13.666;2023-05-14T10:40:59;15.50;99.90
59025;DHT22;44806;48.008;13.666;2023-05-14T10:43:28;15.60;99.90
59025;DHT22;44806;48.008;13.666;2023-05-14T10:45:56;15.60;99.90
59025;DHT22;44806;48.008;13.666;2023-05-14T10:48:23;15.60;99.90
59025;DHT22;44806;48.008;13.666;2023-05-14T10:50:51;15.60;99.90
59025;DHT22;44806;48.008;13.666;2023-05-14T10:53:19;15.50;99.90
59025;DHT22;44806;48.008;13.666;2023-05-14T10:55:46;15.50;99.90
59025;DHT22;44806;48.008;13.666;2023-05-14T10:58:14;15.30;99.90
59025;DHT22;44806;48.008;13.666;2023-05-14T11:00:46;15.20;99.90
59025;DHT22;44806;48.008;13.666;2023-05-14T11:03:14;15.10;99.90
59025;DHT22;44806;48.008;13.666;2023-05-14T11:05:41;15.10;99.90
59025;DHT22;44806;48.008;13.666;2023-05-14T11:08:10;15.20;99.90
59025;DHT22;44806;48.008;13.666;2023-05-14T11:10:38;15.30;99.90
59025;DHT22;44806;48.008;13.666;2023-05-14T11:13:06;15.40;99.90
59025;DHT22;44806;48.008;13.666;2023-05-14T11:15:33;15.40;99.90
59025;DHT22;44806;48.008;13.666;2023-05-14T11:18:02;15.40;99.90
59025;DHT22;44806;48.008;13.666;2023-05-14T11:20:29;15.30;99.90
59025;DHT22;44806;48.008;13.666;2023-05-14T11:22:57;15.20;99.90
59025;DHT22;44806;48.008;13.666;2023-05-14T11:25:24;15.20;99.90
59025;DHT22;44806;48.008;13.666;2023-05-14T11:27:51;15.20;99.90
59025;DHT22;44806;48.008;13.666;2023-05-14T11:30:25;15.10;99.90
59025;DHT22;44806;48.008;13.666;2023-05-14T11:32:54;15.00;99.90
59025;DHT22;44806;48.008;13.666;2023-05-14T11:35:23;14.80;99.90
59025;DHT22;44806;48.008;13.666;2023-05-14T11:37:50;14.60;99.90
59025;DHT22;44806;48.008;13.666;2023-05-14T11:40:17;14.60;99.90
59025;DHT22;44806;48.008;13.666;2023-05-14T11:42:44;14.50;99.90
59025;DHT22;44806;48.008;13.666;2023-05-14T11:45:12;14.40;99.90
59025;DHT22;44806;48.008;13.666;2023-05-14T11:47:40;14.30;99.90
59025;DHT22;44806;48.008;13.666;2023-05-14T11:50:08;14.20;99.90
59025;DHT22;44806;48.008;13.666;2023-05-14T11:52:39;14.10;99.90
59025;DHT22;44806;48.008;13.666;2023-05-14T11:55:09;14.10;99.90
59025;DHT22;44806;48.008;13.666;2023-05-14T11:57:37;14.00;99.90
59025;DHT22;44806;48.008;13.666;2023-05-14T12:00:07;13.90;99.90
59025;DHT22;44806;48.008;13.666;2023-05-14T12:02:36;14.00;99.90
59025;DHT22;44806;48.008;13.666;2023-05-14T12:05:05;14.00;99.90
59025;DHT22;44806;48.008;13.666;2023-05-14T12:07:33;13.90;99.90
59025;DHT22;44806;48.008;13.666;2023-05-14T12:10:03;13.80;99.90
59025;DHT22;44806;48.008;13.666;2023-05-14T12:12:34;13.60;99.90
59025;DHT22;44806;48.008;13.666;2023-05-14T12:15:01;13.60;99.90
59025;DHT22;44806;48.008;13.666;2023-05-14T12:17:28;13.60;99.90
59025;DHT22;44806;48.008;13.666;2023-05-14T12:19:56;13.50;99.90
59025;DHT22;44806;48.008;13.666;2023-05-14T12:22:23;13.60;99.90
59025;DHT22;44806;48.008;13.666;2023-05-14T12:24:53;13.70;99.90
59025;DHT22;44806;48.008;13.666;2023-05-14T12:27:23;13.60;99.90
59025;DHT22;44806;48.008;13.666;2023-05-14T12:29:57;13.70;99.90
59025;DHT22;44806;48.008;13.666;2023-05-14T12:32:24;13.60;99.90
59025;DHT22;44806;48.008;13.666;2023-05-14T12:34:51;13.60;99.90
59025;DHT22;44806;48.008;13.666;2023-05-14T12:37:19;13.60;99.90
59025;DHT22;44806;48.008;13.666;2023-05-14T12:39:46;13.50;99.90
59025;DHT22;44806;48.008;13.666;2023-05-14T12:42:13;13.40;99.90
59025;DHT22;44806;48.008;13.666;2023-05-14T12:44:42;13.40;99.90
59025;DHT22;44806;48.008;13.666;2023-05-14T12:47:09;13.30;99.90
59025;DHT22;44806;48.008;13.666;2023-05-14T12:49:36;13.40;99.90
59025;DHT22;44806;48.008;13.666;2023-05-14T12:52:04;13.40;99.90
59025;DHT22;44806;48.008;13.666;2023-05-14T12:54:31;13.30;99.90
59025;DHT22;44806;48.008;13.666;2023-05-14T12:56:58;13.00;99.90
59025;DHT22;44806;48.008;13.666;2023-05-14T12:59:25;13.00;99.90
59025;DHT22;44806;48.008;13.666;2023-05-14T13:01:53;13.00;99.90
59025;DHT22;44806;48.008;13.666;2023-05-14T13:04:20;12.90;99.90
59025;DHT22;44806;48.008;13.666;2023-05-14T13:06:47;12.90;99.90
59025;DHT22;44806;48.008;13.666;2023-05-14T13:09:14;12.90;99.90
59025;DHT22;44806;48.008;13.666;2023-05-14T13:11:41;12.90;99.90
59025;DHT22;44806;48.008;13.666;2023-05-14T13:14:07;12.80;99.90
59025;DHT22;44806;48.008;13.666;2023-05-14T13:16:34;12.80;99.90
59025;DHT22;44806;48.008;13.666;2023-05-14T13:19:03;12.80;99.90
59025;DHT22;44806;48.008;13.666;2023-05-14T13:21:30;12.70;99.90
59025;DHT22;44806;48.008;13.666;2023-05-14T13:23:56;12.70;99.90
59025;DHT22;44806;48.008;13.666;2023-05-14T13:26:23;12.80;99.90
59025;DHT22;44806;48.008;13.666;2023-05-14T13:28:52;12.90;99.90
59025;DHT22;44806;48.008;13.666;2023-05-14T13:31:19;12.90;99.90
59025;DHT22;44806;48.008;13.666;2023-05-14T13:33:46;12.90;99.90
59025;DHT22;44806;48.008;13.666;2023-05-14T13:36:14;12.80;99.90
59025;DHT22;44806;48.008;13.666;2023-05-14T13:38:41;12.90;99.90
59025;DHT22;44806;48.008;13.666;2023-05-14T13:41:10;12.80;99.90
59025;DHT22;44806;48.008;13.666;2023-05-14T13:43:37;12.80;99.90
59025;DHT22;44806;48.008;13.666;2023-05-14T13:46:04;12.70;99.90
59025;DHT22;44806;48.008;13.666;2023-05-14T13:48:31;12.80;99.90
59025;DHT22;44806;48.008;13.666;2023-05-14T13:50:58;12.80;99.90
59025;DHT22;44806;48.008;13.666;2023-05-14T13:53:27;12.80;99.90
59025;DHT22;44806;48.008;13.666;2023-05-14T13:55:54;12.90;99.90
59025;DHT22;44806;48.008;13.666;2023-05-14T13:58:23;12.90;99.90
59025;DHT22;44806;48.008;13.666;2023-05-14T14:00:50;12.90;99.90
59025;DHT22;44806;48.008;13.666;2023-05-14T14:03:17;12.90;99.90
59025;DHT22;44806;48.008;13.666;2023-05-14T14:05:44;12.80;99.90
59025;DHT22;44806;48.008;13.666;2023-05-14T14:08:11;12.80;99.90
59025;DHT22;44806;48.008;13.666;2023-05-14T14:10:39;12.80;99.90
59025;DHT22;44806;48.008;13.666;2023-05-14T14:13:07;12.80;99.90
59025;DHT22;44806;48.008;13.666;2023-05-14T14:15:34;12.90;99.90
59025;DHT22;44806;48.008;13.666;2023-05-14T14:18:01;12.90;99.90
59025;DHT22;44806;48.008;13.666;2023-05-14T14:20:28;12.90;99.90
59025;DHT22;44806;48.008;13.666;2023-05-14T14:22:55;12.90;99.90
59025;DHT22;44806;48.008;13.666;2023-05-14T14:25:22;12.90;99.90
59025;DHT22;44806;48.008;13.666;2023-05-14T14:27:51;13.00;99.90
59025;DHT22;44806;48.008;13.666;2023-05-14T14:30:18;12.90;99.90
59025;DHT22;44806;48.008;13.666;2023-05-14T14:32:45;12.80;99.90
59025;DHT22;44806;48.008;13.666;2023-05-14T14:35:14;12.90;99.90
59025;DHT22;44806;48.008;13.666;2023-05-14T14:37:41;12.90;99.90
59025;DHT22;44806;48.008;13.666;2023-05-14T14:40:13;12.90;99.90
59025;DHT22;44806;48.008;13.666;2023-05-14T14:42:41;12.80;99.90
59025;DHT22;44806;48.008;13.666;2023-05-14T14:45:10;12.90;99.90
59025;DHT22;44806;48.008;13.666;2023-05-14T14:47:41;12.70;99.90
59025;DHT22;44806;48.008;13.666;2023-05-14T14:50:08;12.60;99.90
59025;DHT22;44806;48.008;13.666;2023-05-14T14:52:35;12.60;99.90
59025;DHT22;44806;48.008;13.666;2023-05-14T14:55:02;12.60;99.90
59025;DHT22;44806;48.008;13.666;2023-05-14T14:57:30;12.60;99.90
59025;DHT22;44806;48.008;13.666;2023-05-14T14:59:57;12.50;99.90
59025;DHT22;44806;48.008;13.666;2023-05-14T15:02:25;12.50;99.90
59025;DHT22;44806;48.008;13.666;2023-05-14T15:04:52;12.40;99.90
59025;DHT22;44806;48.008;13.666;2023-05-14T15:07:19;12.40;99.90
59025;DHT22;44806;48.008;13.666;2023-05-14T15:09:47;12.30;99.90
59025;DHT22;44806;48.008;13.666;2023-05-14T15:12:14;12.30;99.90
59025;DHT22;44806;48.008;13.666;2023-05-14T15:14:41;12.30;99.90
59025;DHT22;44806;48.008;13.666;2023-05-14T15:17:08;12.20;99.90
59025;DHT22;44806;48.008;13.666;2023-05-14T15:19:37;12.30;99.90